Airfield :
LOGIN :

Register | Disclaimer

   EN    FR    IT 

 










Legend :    VFR   Marginal VFR   IFR   Intensive IFR   Very Intensive IFR
Visi :
Ceiling :
>= 8 km
>= 3000ft
5 to 8 km
1000 to 3000 ft
1500m to 5 km
500 to 1000 ft
800 to 1500m
200 to 500 ft
< 800m
< 200 ft
Symbols :   Thunderstorms  Fog  Heavy snow  Heavy precipitations  Wind > 20 kt
SIGMETs :     Misc.  Thunderstorms  Icing  Turbulence  Mountain Waves  Volcanic Ashes






- Airport Elevation : 203 ft
- IATA code : XMJ


LFBM - Mont-De-Marsan

CURRENT METAR :
  • 040030Z AUTO 26007KT 9999 ///CB 16/15 Q1021

EXPIRED METARs :
  • 040000Z AUTO 25007KT 9999 ///CB 17/15 Q1021
  • 031530Z AUTO VRB02KT CAVOK 29/14 Q1018
  • 032330Z AUTO 26004KT 230V290 9999 //////CB 16/15 Q1021
  • 032300Z AUTO 27007KT 9999 ///CB 16/15 Q1021
  • 032230Z AUTO 24007KT 210V270 9999 ///CB 17/16 Q1021
  • 032200Z AUTO 20004KT 160V230 9999 //////CB 18/16 Q1020

Expired Forecast.



MET'MAP, your aeronautical weather chart ! - Copyright ORBIFLY December 2007 - Disclaimer

ORBIFLY MET'MAP TEAM :

Programming & Development : Alexandra Zaïnal
Original concept : Baudouin d'Aumeries
Technical & hardware support : Manuel Goepfert
Assistance : Marc-Olivier Méhu




SOURCES & CREDITS :

   NOAA